Time;durP1;ratioP1;P1;durP2;ratioP2;P2;SDS_P1;SDS_P2;PMS_P1;PMS_P2;Temp;Humidity;BMP_temperature;BMP_pressure;BME280_temperature;BME280_humidity;BME280_pressure;Samples;Min_cycle;Max_cycle;Signal;HPM_P1;HPM_P2
2023/12/13 00:01:32;;;;;;;26.20;12.67;;;;;;;3.68;84.67;96862.63;4929102;29;20229;-73
2023/12/13 00:03:59;;;;;;;28.90;11.87;;;;;;;3.85;84.04;96876.72;4929693;29;20633;-73
2023/12/13 00:06:28;;;;;;;27.17;12.63;;;;;;;3.86;84.33;96878.44;4929155;29;20311;-73
2023/12/13 00:08:55;;;;;;;27.80;11.93;;;;;;;3.82;84.22;96868.28;4929491;29;20611;-71
2023/12/13 00:11:23;;;;;;;27.03;12.60;;;;;;;3.98;84.25;96867.91;4932865;29;20229;-72
2023/12/13 00:13:50;;;;;;;26.40;12.70;;;;;;;4.14;83.26;96861.53;4933097;29;20648;-71
2023/12/13 00:16:18;;;;;;;25.23;13.03;;;;;;;4.28;81.51;96874.06;4916191;29;20599;-73
2023/12/13 00:18:47;;;;;;;30.17;13.23;;;;;;;4.31;81.26;96873.97;4932703;29;20185;-71
2023/12/13 00:21:17;;;;;;;23.97;11.67;;;;;;;4.03;82.39;96888.31;4933664;29;20210;-73
2023/12/13 00:23:46;;;;;;;23.77;10.97;;;;;;;3.92;82.53;96895.38;4932943;29;20310;-72
2023/12/13 00:26:18;;;;;;;25.57;11.20;;;;;;;3.57;81.89;96828.72;4933202;29;20198;-72
2023/12/13 00:28:45;;;;;;;21.23;9.80;;;;;;;3.55;83.76;96899.59;4932983;29;20216;-72
2023/12/13 00:31:13;;;;;;;18.27;9.77;;;;;;;3.12;85.60;96871.47;4932670;29;20190;-72
2023/12/13 00:33:40;;;;;;;19.43;8.90;;;;;;;3.33;85.28;96858.25;4933051;29;20308;-71
2023/12/13 00:36:07;;;;;;;23.67;9.67;;;;;;;3.24;85.84;96884.03;4932249;29;20205;-72
2023/12/13 00:38:34;;;;;;;26.40;10.83;;;;;;;3.09;86.81;96890.28;4933218;29;20699;-70
2023/12/13 00:41:02;;;;;;;17.47;8.30;;;;;;;2.99;87.12;96863.19;4932313;29;20200;-71
2023/12/13 00:43:29;;;;;;;22.57;9.53;;;;;;;2.54;88.33;96809.50;4932713;29;20207;-72
2023/12/13 00:45:56;;;;;;;21.83;9.40;;;;;;;2.93;88.91;96867.56;4932697;29;20281;-71
2023/12/13 00:48:23;;;;;;;19.77;8.53;;;;;;;2.92;88.30;96864.19;4932515;29;20200;-73
2023/12/13 00:50:50;;;;;;;21.40;7.87;;;;;;;2.95;89.11;96863.25;4932627;29;20255;-73
2023/12/13 00:53:17;;;;;;;23.60;9.83;;;;;;;3.00;88.78;96864.88;4914874;29;20447;-72
2023/12/13 00:55:45;;;;;;;26.93;10.33;;;;;;;2.81;88.28;96816.66;4932912;29;20209;-71
2023/12/13 00:58:12;;;;;;;21.97;9.93;;;;;;;3.43;87.68;96894.72;4931791;29;20186;-70
2023/12/13 01:00:39;;;;;;;25.87;10.90;;;;;;;3.68;86.82;96895.91;4932321;29;20632;-70
2023/12/13 01:03:06;;;;;;;19.90;9.60;;;;;;;3.68;86.07;96901.03;4932108;29;20300;-70
2023/12/13 01:05:33;;;;;;;22.70;10.03;;;;;;;3.60;86.38;96908.03;4932086;29;20201;-70
2023/12/13 01:08:00;;;;;;;19.73;9.40;;;;;;;3.73;86.10;96891.56;4932650;29;20201;-71
2023/12/13 01:10:27;;;;;;;19.77;9.33;;;;;;;3.92;85.33;96875.72;4931928;29;20206;-71
2023/12/13 01:12:54;;;;;;;22.00;9.70;;;;;;;4.05;84.00;96845.56;4932556;29;20240;-71
2023/12/13 01:15:22;;;;;;;21.33;9.97;;;;;;;4.03;84.28;96840.47;4931811;29;20604;-71
2023/12/13 01:17:49;;;;;;;23.40;11.07;;;;;;;3.98;83.38;96832.03;4932269;29;20197;-70
2023/12/13 01:20:16;;;;;;;22.10;11.37;;;;;;;4.20;83.45;96867.41;4932056;29;20603;-70
2023/12/13 01:22:43;;;;;;;21.23;11.03;;;;;;;4.27;82.25;96845.88;4931091;29;20202;-72
2023/12/13 01:25:10;;;;;;;18.70;9.73;;;;;;;4.13;83.04;96839.38;4932008;29;20281;-70
2023/12/13 01:27:37;;;;;;;24.23;11.67;;;;;;;4.19;82.18;96852.91;4931547;29;21077;-70
2023/12/13 01:30:08;;;;;;;18.40;9.40;;;;;;;4.23;82.41;96859.66;4932157;29;20249;-72
2023/12/13 01:32:35;;;;;;;22.47;11.00;;;;;;;3.79;81.90;96800.03;4931160;29;20233;-69
2023/12/13 01:35:03;;;;;;;26.20;11.33;;;;;;;3.92;82.00;96842.44;4932346;29;20565;-71
2023/12/13 01:37:30;;;;;;;22.47;11.03;;;;;;;3.79;81.99;96832.53;4931540;29;21070;-71
2023/12/13 01:39:58;;;;;;;28.37;12.53;;;;;;;3.84;82.54;96836.66;4931566;29;20201;-70
2023/12/13 01:42:25;;;;;;;25.10;10.93;;;;;;;3.75;82.25;96829.16;4931297;29;20213;-71
2023/12/13 01:44:52;;;;;;;29.00;11.40;;;;;;;3.62;82.58;96832.91;4931434;29;20265;-72
2023/12/13 01:47:19;;;;;;;24.27;10.10;;;;;;;3.17;83.90;96801.44;4931931;29;20236;-70
2023/12/13 01:49:46;;;;;;;26.27;12.07;;;;;;;3.28;83.43;96826.78;4931316;29;20387;-72
2023/12/13 01:52:15;;;;;;;24.40;10.60;;;;;;;3.28;84.32;96850.66;4931919;29;20237;-70
2023/12/13 01:54:43;;;;;;;18.57;9.80;;;;;;;3.09;85.18;96858.75;4931298;29;20229;-71
2023/12/13 01:57:13;;;;;;;22.47;10.57;;;;;;;2.84;85.50;96837.94;4893757;29;20804;-70
2023/12/13 01:59:41;;;;;;;22.03;9.70;;;;;;;2.58;86.90;96850.31;4893684;29;20205;-70
2023/12/13 02:02:09;;;;;;;26.13;10.27;;;;;;;2.42;87.55;96823.34;4893054;29;20227;-72
2023/12/13 02:04:38;;;;;;;18.90;8.57;;;;;;;2.42;87.65;96838.69;4893786;29;20561;-71
2023/12/13 02:07:05;;;;;;;22.43;8.67;;;;;;;2.03;87.64;96761.03;4892911;29;20211;-71
2023/12/13 02:09:32;;;;;;;19.90;7.50;;;;;;;2.47;88.95;96836.91;4893708;29;20753;-71
2023/12/13 02:12:00;;;;;;;23.37;9.33;;;;;;;2.55;89.17;96839.31;4893343;29;20310;-72
2023/12/13 02:14:27;;;;;;;23.20;9.13;;;;;;;2.71;88.96;96831.34;4893612;29;20215;-72
2023/12/13 02:16:55;;;;;;;19.97;8.10;;;;;;;2.84;88.42;96830.25;4893097;29;20195;-70
2023/12/13 02:19:22;;;;;;;17.60;6.83;;;;;;;2.97;88.16;96818.03;4893014;29;20621;-71
2023/12/13 02:21:49;;;;;;;18.40;7.57;;;;;;;3.00;88.08;96807.78;4893047;29;20216;-69
2023/12/13 02:24:22;;;;;;;44.70;15.03;;;;;;;3.27;86.90;96813.19;4892447;29;20699;-70
2023/12/13 02:26:51;;;;;;;39.03;14.17;;;;;;;3.39;86.08;96811.22;4893392;29;20194;-71
2023/12/13 02:29:19;;;;;;;91.17;28.67;;;;;;;3.44;86.22;96804.28;4891458;29;20747;-71
2023/12/13 02:31:46;;;;;;;86.77;28.13;;;;;;;3.68;85.09;96819.94;4892775;29;20207;-70
2023/12/13 02:34:13;;;;;;;84.93;28.87;;;;;;;3.83;84.99;96813.66;4892432;29;20217;-71
2023/12/13 02:36:44;;;;;;;73.70;25.67;;;;;;;3.83;83.78;96811.91;4892573;29;20270;-69
2023/12/13 02:39:12;;;;;;;39.37;14.93;;;;;;;3.90;83.17;96827.97;4893115;29;20199;-72
2023/12/13 02:41:41;;;;;;;29.63;12.87;;;;;;;3.84;82.71;96836.66;4875746;29;20200;-72
2023/12/13 02:44:08;;;;;;;25.13;10.47;;;;;;;3.81;82.63;96846.13;4893132;29;20694;-73
2023/12/13 02:46:35;;;;;;;19.30;8.77;;;;;;;3.99;82.38;96841.44;4892379;29;20298;-72
2023/12/13 02:49:02;;;;;;;25.60;9.90;;;;;;;4.00;82.73;96848.22;4892766;29;20682;-71
2023/12/13 02:51:30;;;;;;;22.37;9.03;;;;;;;3.86;81.68;96821.25;4892864;29;20714;-73
2023/12/13 02:53:57;;;;;;;33.27;12.77;;;;;;;3.89;81.51;96844.22;4892254;29;20667;-71
2023/12/13 02:56:24;;;;;;;25.40;12.20;;;;;;;3.73;81.05;96815.56;4892743;29;20714;-70
2023/12/13 02:58:51;;;;;;;38.90;15.23;;;;;;;3.68;81.26;96814.84;4892094;29;20959;-69
2023/12/13 03:01:18;;;;;;;26.10;10.60;;;;;;;3.30;82.09;96807.97;4892564;29;20211;-70
2023/12/13 03:03:45;;;;;;;19.53;8.67;;;;;;;2.89;83.50;96804.56;4891668;29;20235;-70
2023/12/13 03:06:12;;;;;;;36.13;13.60;;;;;;;2.85;84.92;96814.03;4892416;29;20191;-70
2023/12/13 03:08:39;;;;;;;25.70;10.07;;;;;;;3.00;85.51;96808.63;4891694;29;20695;-69
2023/12/13 03:11:10;;;;;;;64.67;22.17;;;;;;;3.13;84.50;96801.53;4891923;29;20199;-69
2023/12/13 03:13:37;;;;;;;50.73;20.87;;;;;;;3.29;84.52;96802.91;4892406;29;20215;-72
2023/12/13 03:16:06;;;;;;;65.60;25.50;;;;;;;3.24;83.46;96786.78;4891937;29;20683;-70
2023/12/13 03:18:33;;;;;;;28.63;11.47;;;;;;;3.25;84.06;96799.56;4892508;29;20301;-69
2023/12/13 03:21:00;;;;;;;51.77;17.17;;;;;;;3.25;84.42;96791.91;4891472;29;20230;-71
2023/12/13 03:23:27;;;;;;;54.63;19.17;;;;;;;3.25;85.06;96794.47;4892090;29;20253;-69
2023/12/13 03:25:54;;;;;;;42.27;15.57;;;;;;;3.36;83.40;96801.06;4892040;29;20294;-70
2023/12/13 03:28:21;;;;;;;25.70;11.03;;;;;;;3.59;83.01;96789.44;4891979;29;20203;-71
2023/12/13 03:30:49;;;;;;;38.23;13.83;;;;;;;3.69;82.56;96787.53;4891812;29;20609;-71
2023/12/13 03:33:16;;;;;;;36.83;15.23;;;;;;;3.74;81.85;96794.22;4891432;29;20262;-72
2023/12/13 03:35:43;;;;;;;23.37;10.30;;;;;;;3.78;81.17;96797.53;4906723;29;20222;-71
2023/12/13 03:38:11;;;;;;;25.27;10.53;;;;;;;3.56;81.44;96794.63;4891341;29;20195;-70
2023/12/13 03:40:38;;;;;;;22.43;9.27;;;;;;;3.57;81.82;96787.78;4892113;29;20698;-70
2023/12/13 03:43:05;;;;;;;21.40;8.63;;;;;;;3.50;82.05;96747.84;4891470;29;20882;-70
2023/12/13 03:45:33;;;;;;;21.67;9.47;;;;;;;3.67;81.62;96761.09;4891252;29;20644;-73
2023/12/13 03:48:00;;;;;;;24.93;10.30;;;;;;;3.55;80.93;96746.00;4890319;29;20211;-72
2023/12/13 03:50:27;;;;;;;26.63;10.53;;;;;;;3.78;80.82;96772.78;4891195;29;20214;-70
2023/12/13 03:52:54;;;;;;;23.40;9.73;;;;;;;3.79;80.17;96766.75;4891934;29;20298;-71
2023/12/13 03:55:21;;;;;;;27.03;10.30;;;;;;;3.74;80.66;96760.06;4891078;29;20294;-71
2023/12/13 03:57:48;;;;;;;21.67;9.13;;;;;;;3.68;80.81;96786.66;4892266;29;20199;-70
2023/12/13 04:00:17;;;;;;;26.07;10.57;;;;;;;3.38;81.53;96783.97;4891123;29;20222;-71
2023/12/13 04:02:44;;;;;;;61.40;21.13;;;;;;;3.37;82.59;96803.56;4891494;29;20230;-71
2023/12/13 04:05:11;;;;;;;36.53;14.60;;;;;;;3.56;81.88;96804.03;4891147;29;20217;-69
2023/12/13 04:07:38;;;;;;;32.97;13.97;;;;;;;3.55;81.32;96799.75;4891199;29;20203;-70
2023/12/13 04:10:06;;;;;;;25.90;10.80;;;;;;;3.52;80.83;96822.88;4891752;29;20208;-70
2023/12/13 04:12:33;;;;;;;28.13;10.90;;;;;;;3.33;81.42;96811.34;4891063;29;20835;-70
2023/12/13 04:15:00;;;;;;;19.70;9.13;;;;;;;3.08;82.19;96776.06;4891936;29;20584;-72
2023/12/13 04:17:30;;;;;;;19.80;7.97;;;;;;;3.00;84.15;96802.66;4890648;29;20233;-71
2023/12/13 04:19:58;;;;;;;19.43;7.47;;;;;;;2.85;84.74;96815.72;4891797;29;20211;-71
2023/12/13 04:22:25;;;;;;;15.57;6.77;;;;;;;2.79;85.28;96803.91;4890737;29;20203;-71
2023/12/13 04:24:53;;;;;;;19.90;7.90;;;;;;;2.71;85.79;96795.56;4891119;29;20669;-70
2023/12/13 04:27:20;;;;;;;19.63;7.50;;;;;;;2.74;85.65;96795.47;4891486;29;20226;-70
2023/12/13 04:29:47;;;;;;;22.23;8.10;;;;;;;2.81;86.37;96797.06;4890619;29;20243;-69
2023/12/13 04:32:14;;;;;;;15.77;6.57;;;;;;;2.87;85.99;96801.19;4891388;29;20650;-71
2023/12/13 04:34:41;;;;;;;18.20;5.27;;;;;;;3.00;85.82;96798.41;4899554;29;20293;-71
2023/12/13 04:37:08;;;;;;;20.40;7.77;;;;;;;3.08;86.04;96798.22;4910427;29;20199;-72
2023/12/13 04:39:35;;;;;;;17.10;7.07;;;;;;;3.24;85.23;96797.88;4910079;29;20209;-71
2023/12/13 04:42:05;;;;;;;31.83;13.53;;;;;;;3.32;85.32;96795.16;4910748;29;20703;-71
2023/12/13 04:44:33;;;;;;;20.27;8.70;;;;;;;3.47;84.14;96807.63;4911587;29;20233;-71
2023/12/13 04:47:03;;;;;;;22.30;8.10;;;;;;;3.60;83.48;96814.16;4913254;29;20197;-70
2023/12/13 04:49:31;;;;;;;18.67;8.27;;;;;;;3.54;82.77;96788.72;4913566;29;20295;-70
2023/12/13 04:51:59;;;;;;;19.77;7.90;;;;;;;3.40;83.45;96788.13;4912616;29;20194;-71
2023/12/13 04:54:27;;;;;;;23.37;8.50;;;;;;;3.47;83.24;96764.09;4911464;29;20262;-71
2023/12/13 04:56:57;;;;;;;16.30;7.23;;;;;;;3.65;81.97;96773.06;4913330;29;20199;-72
2023/12/13 04:59:26;;;;;;;28.23;8.70;;;;;;;3.77;82.11;96783.06;4893922;29;20209;-72
2023/12/13 05:01:53;;;;;;;26.87;10.13;;;;;;;3.77;82.35;96796.69;4913213;29;20632;-72
2023/12/13 05:04:20;;;;;;;34.07;12.63;;;;;;;3.78;81.73;96811.19;4913168;29;20291;-71
2023/12/13 05:06:47;;;;;;;40.50;12.20;;;;;;;3.84;81.93;96815.31;4896602;29;20210;-72
2023/12/13 05:09:15;;;;;;;31.73;11.90;;;;;;;3.83;82.53;96829.81;4912741;29;20660;-71
2023/12/13 05:11:42;;;;;;;32.70;11.87;;;;;;;3.80;82.94;96834.19;4913531;29;20302;-71
2023/12/13 05:14:09;;;;;;;25.90;10.27;;;;;;;3.83;82.34;96840.06;4912940;29;20325;-71
2023/12/13 05:16:48;;;;;;;22.13;8.97;;;;;;;3.63;82.51;96828.59;4913545;29;20205;-72
2023/12/13 05:19:16;;;;;;;14.97;6.23;;;;;;;3.61;82.50;96845.72;4910532;29;20288;-73
2023/12/13 05:21:43;;;;;;;29.60;11.13;;;;;;;3.35;83.47;96830.06;4909023;29;20255;-71
2023/12/13 05:24:11;;;;;;;15.83;7.47;;;;;;;3.39;83.17;96785.63;4913496;29;20210;-71
2023/12/13 05:26:39;;;;;;;16.10;6.43;;;;;;;3.40;83.32;96782.22;4912247;29;20192;-72
2023/12/13 05:29:06;;;;;;;16.30;6.37;;;;;;;3.31;84.27;96770.44;4913037;29;20206;-72
2023/12/13 05:31:34;;;;;;;15.23;6.07;;;;;;;3.22;85.14;96755.28;4912252;29;20206;-74
2023/12/13 05:34:01;;;;;;;26.37;9.60;;;;;;;3.63;84.40;96782.50;4912885;29;20725;-72
2023/12/13 05:36:28;;;;;;;24.40;10.20;;;;;;;3.67;83.59;96753.44;4912592;29;20286;-75
2023/12/13 05:38:55;;;;;;;20.60;9.70;;;;;;;3.65;83.18;96732.09;4912874;29;20582;-72
2023/12/13 05:41:22;;;;;;;19.60;10.00;;;;;;;3.95;82.16;96780.91;4912851;29;20190;-73
2023/12/13 05:43:50;;;;;;;30.17;13.67;;;;;;;4.15;82.23;96785.53;4912180;29;20206;-74
2023/12/13 05:46:17;;;;;;;25.23;13.20;;;;;;;4.02;81.40;96795.22;4913093;29;20214;-75
2023/12/13 05:48:44;;;;;;;36.13;17.50;;;;;;;4.11;81.51;96809.53;4912055;29;20258;-71
2023/12/13 05:51:12;;;;;;;48.27;22.77;;;;;;;3.78;82.40;96779.59;4912627;29;20207;-72
2023/12/13 05:53:39;;;;;;;35.87;17.17;;;;;;;3.99;81.00;96781.66;4911682;29;20701;-71
2023/12/13 05:56:07;;;;;;;34.30;16.40;;;;;;;3.93;82.54;96794.63;4912478;29;20360;-72
2023/12/13 05:58:34;;;;;;;39.57;17.73;;;;;;;4.16;82.42;96812.00;4911799;29;20199;-70
2023/12/13 06:01:01;;;;;;;42.77;17.87;;;;;;;4.23;81.47;96813.50;4911904;29;20211;-73
2023/12/13 06:03:30;;;;;;;29.93;16.33;;;;;;;4.03;82.47;96786.69;4912605;29;20250;-72
2023/12/13 06:05:57;;;;;;;35.17;16.73;;;;;;;3.83;81.36;96754.75;4911932;29;20221;-72
2023/12/13 06:08:25;;;;;;;38.00;16.03;;;;;;;4.13;81.70;96811.19;4910452;29;20297;-71
2023/12/13 06:10:52;;;;;;;27.83;13.77;;;;;;;3.77;82.52;96789.00;4911568;29;20896;-70
2023/12/13 06:13:19;;;;;;;35.70;15.80;;;;;;;3.93;82.27;96800.59;4911715;29;20293;-70
2023/12/13 06:15:47;;;;;;;29.60;13.83;;;;;;;3.97;81.97;96804.75;4911629;29;20270;-72
2023/12/13 06:18:14;;;;;;;28.47;12.83;;;;;;;3.82;82.85;96812.78;4911461;29;20701;-71
2023/12/13 06:20:42;;;;;;;27.27;12.23;;;;;;;3.60;82.53;96786.00;4911757;29;20217;-71
2023/12/13 06:23:09;;;;;;;27.30;12.17;;;;;;;3.57;83.20;96767.28;4911161;29;20203;-71
2023/12/13 06:25:36;;;;;;;24.93;10.73;;;;;;;3.50;83.62;96755.53;4911917;29;20250;-72
2023/12/13 06:28:04;;;;;;;17.47;8.20;;;;;;;3.24;84.08;96721.13;4911234;29;20237;-72
2023/12/13 06:30:31;;;;;;;20.13;8.50;;;;;;;3.32;84.33;96727.81;4911633;29;20689;-72
2023/12/13 06:32:59;;;;;;;19.13;9.10;;;;;;;3.67;83.90;96756.00;4911254;29;20227;-70
2023/12/13 06:35:26;;;;;;;22.30;10.03;;;;;;;3.86;83.71;96763.19;4911186;29;20198;-72
2023/12/13 06:37:53;;;;;;;22.83;10.07;;;;;;;4.05;83.20;96779.81;4911439;29;20203;-71
2023/12/13 06:40:21;;;;;;;23.10;10.50;;;;;;;4.20;82.65;96783.72;4894148;29;20762;-70
2023/12/13 06:42:48;;;;;;;24.97;11.47;;;;;;;4.57;81.96;96781.88;4894424;29;20242;-70
2023/12/13 06:45:15;;;;;;;24.17;11.07;;;;;;;4.80;81.56;96787.22;4910756;29;20672;-71
2023/12/13 06:47:42;;;;;;;27.93;12.93;;;;;;;4.69;81.02;96763.59;4911533;29;20282;-72
2023/12/13 06:50:10;;;;;;;42.80;16.73;;;;;;;4.76;80.05;96764.28;4909574;29;20305;-69
2023/12/13 06:52:38;;;;;;;49.73;20.77;;;;;;;4.77;79.23;96756.53;4915073;29;20214;-71
2023/12/13 06:55:06;;;;;;;50.23;22.40;;;;;;;4.77;79.92;96795.00;4911464;29;20254;-69
2023/12/13 06:57:33;;;;;;;61.47;24.17;;;;;;;4.75;79.79;96778.81;4893481;29;20198;-73
2023/12/13 07:00:03;;;;;;;40.83;20.13;;;;;;;4.95;79.67;96789.38;4894431;29;20606;-74
2023/12/13 07:02:31;;;;;;;33.17;14.73;;;;;;;4.63;80.55;96753.50;4896797;29;20236;-74
2023/12/13 07:05:00;;;;;;;36.73;15.23;;;;;;;4.52;81.21;96767.47;4871939;29;20204;-72
2023/12/13 07:07:29;;;;;;;29.90;13.30;;;;;;;4.60;81.55;96752.72;4873497;29;20205;-71
2023/12/13 07:09:57;;;;;;;24.07;11.10;;;;;;;4.80;80.28;96769.25;4873294;29;20355;-70
2023/12/13 07:12:27;;;;;;;22.73;11.33;;;;;;;4.87;80.72;96749.41;4871929;29;20625;-70
2023/12/13 07:14:57;;;;;;;24.07;10.83;;;;;;;4.97;80.08;96746.53;4873075;29;20212;-70
2023/12/13 07:17:25;;;;;;;26.40;12.10;;;;;;;5.16;79.93;96756.28;4874004;29;20235;-70
2023/12/13 07:19:52;;;;;;;33.70;13.80;;;;;;;5.27;79.71;96769.66;4872079;29;20388;-70
2023/12/13 07:22:19;;;;;;;32.07;15.40;;;;;;;5.19;79.57;96763.91;4887544;29;20264;-72
2023/12/13 07:24:47;;;;;;;36.93;15.77;;;;;;;5.26;79.83;96771.38;4873137;29;20229;-71
2023/12/13 07:27:15;;;;;;;37.97;16.57;;;;;;;5.48;78.83;96776.72;4871737;29;20573;-72
2023/12/13 07:29:43;;;;;;;37.13;16.37;;;;;;;5.49;78.23;96752.69;4872568;29;20209;-71
2023/12/13 07:32:10;;;;;;;41.80;17.10;;;;;;;5.48;79.45;96751.84;4872295;29;20208;-71
2023/12/13 07:34:37;;;;;;;38.80;16.67;;;;;;;5.53;78.91;96755.13;4884878;29;20261;-72
2023/12/13 07:37:07;;;;;;;46.43;17.37;;;;;;;5.50;79.00;96733.84;4881997;29;20633;-71
2023/12/13 07:39:36;;;;;;;49.40;17.90;;;;;;;5.65;78.69;96733.34;4874495;29;20197;-71
2023/12/13 07:42:04;;;;;;;38.13;16.43;;;;;;;5.66;78.74;96722.22;4872649;29;20200;-73
2023/12/13 07:44:33;;;;;;;38.73;16.73;;;;;;;5.74;78.56;96709.97;4871493;29;20206;-74
2023/12/13 07:47:01;;;;;;;42.50;17.30;;;;;;;5.70;77.67;96700.69;4873208;29;20205;-71
2023/12/13 07:49:28;;;;;;;49.43;19.37;;;;;;;5.74;77.34;96691.97;4872253;29;20204;-71
2023/12/13 07:51:56;;;;;;;48.73;18.43;;;;;;;5.90;78.07;96708.59;4873114;29;20671;-72
2023/12/13 07:54:23;;;;;;;37.73;16.57;;;;;;;5.98;77.57;96727.19;4872079;29;20229;-73
2023/12/13 07:56:52;;;;;;;48.43;19.23;;;;;;;5.86;78.08;96712.16;4873022;29;20319;-71
2023/12/13 07:59:21;;;;;;;40.97;18.27;;;;;;;6.29;77.30;96750.97;4870880;29;20300;-71
2023/12/13 08:01:48;;;;;;;44.90;17.93;;;;;;;6.19;77.57;96746.19;4855772;29;20202;-72
2023/12/13 08:04:17;;;;;;;56.93;20.43;;;;;;;6.31;77.11;96740.63;4872431;29;20653;-70
2023/12/13 08:06:44;;;;;;;48.53;18.30;;;;;;;6.41;76.35;96735.13;4870950;29;20202;-71
2023/12/13 08:09:11;;;;;;;35.20;14.87;;;;;;;6.08;76.65;96720.84;4886669;29;20218;-69
2023/12/13 08:11:39;;;;;;;40.03;16.70;;;;;;;5.87;77.75;96688.16;4872011;29;20210;-72
2023/12/13 08:14:06;;;;;;;35.50;15.87;;;;;;;5.88;78.11;96736.06;4887257;29;20265;-70
2023/12/13 08:16:33;;;;;;;49.20;21.83;;;;;;;5.94;79.12;96729.88;4883217;29;20214;-71
2023/12/13 08:19:01;;;;;;;49.73;22.20;;;;;;;6.02;79.63;96725.38;4880995;29;20270;-72
2023/12/13 08:21:28;;;;;;;50.50;21.83;;;;;;;5.93;79.29;96715.38;4871595;29;20648;-70
2023/12/13 08:23:55;;;;;;;52.23;23.83;;;;;;;5.90;79.45;96713.75;4872572;29;20214;-72
2023/12/13 08:26:25;;;;;;;44.33;19.87;;;;;;;5.68;79.46;96718.72;4872414;29;20273;-73
2023/12/13 08:28:52;;;;;;;53.03;20.90;;;;;;;5.81;80.11;96701.19;4871828;29;20233;-72
2023/12/13 08:31:31;;;;;;;48.37;21.80;;;;;;;6.06;80.91;96732.91;4874683;29;20287;-70
2023/12/13 08:34:00;;;;;;;42.63;20.87;;;;;;;6.30;79.88;96726.13;4875843;29;20331;-69
2023/12/13 08:36:28;;;;;;;48.27;21.30;;;;;;;6.44;77.82;96716.19;4876247;29;20206;-71
2023/12/13 08:38:56;;;;;;;42.77;20.60;;;;;;;6.36;77.61;96677.03;4876046;29;20214;-73
2023/12/13 08:41:23;;;;;;;61.73;23.83;;;;;;;6.74;77.30;96722.00;4875759;29;20198;-72
2023/12/13 08:43:50;;;;;;;54.20;23.13;;;;;;;6.69;77.02;96705.88;4874232;29;20201;-71
2023/12/13 08:46:18;;;;;;;66.87;29.23;;;;;;;6.90;77.21;96721.38;4874715;29;20285;-73
2023/12/13 08:48:48;;;;;;;55.97;24.00;;;;;;;7.05;76.52;96701.94;4875777;29;20211;-73
2023/12/13 08:51:16;;;;;;;53.63;23.87;;;;;;;7.15;76.78;96691.25;4875954;29;20203;-73
2023/12/13 08:53:44;;;;;;;53.20;23.00;;;;;;;7.11;77.19;96676.81;4875671;29;20237;-74
2023/12/13 08:56:11;;;;;;;51.77;22.47;;;;;;;7.05;77.80;96681.34;4879350;29;20207;-72
2023/12/13 08:58:38;;;;;;;56.93;24.77;;;;;;;7.23;76.81;96678.09;4889669;29;20206;-70
2023/12/13 09:01:09;;;;;;;50.07;22.00;;;;;;;7.46;75.16;96690.91;4882871;29;20204;-71
2023/12/13 09:03:37;;;;;;;59.60;24.00;;;;;;;7.43;74.97;96669.56;4889751;29;20326;-72
2023/12/13 09:06:28;;;;;;;48.33;21.37;;;;;;;7.32;75.64;96650.22;4895050;29;20210;-71
2023/12/13 09:09:11;;;;;;;49.60;22.30;;;;;;;7.68;74.28;96686.59;4892939;29;20288;-72
2023/12/13 09:11:38;;;;;;;48.70;21.80;;;;;;;7.75;74.02;96687.19;4893655;29;20209;-73
2023/12/13 09:14:05;;;;;;;53.70;21.67;;;;;;;7.91;73.28;96671.00;4893956;29;20219;-72
2023/12/13 09:16:32;;;;;;;54.10;20.50;;;;;;;7.94;72.94;96652.84;4892036;29;20631;-72
2023/12/13 09:19:01;;;;;;;43.23;19.97;;;;;;;8.03;72.46;96657.63;4892897;29;20206;-70
2023/12/13 09:21:28;;;;;;;48.30;20.13;;;;;;;8.11;73.00;96650.41;4893383;29;20199;-72
2023/12/13 09:23:58;;;;;;;45.00;21.43;;;;;;;8.06;72.43;96633.44;4893972;29;20263;-75
2023/12/13 09:26:26;;;;;;;49.47;20.37;;;;;;;8.08;72.72;96618.75;4892616;29;20195;-74
2023/12/13 09:28:55;;;;;;;46.33;21.80;;;;;;;8.30;72.28;96629.03;4893631;29;20290;-72
2023/12/13 09:31:24;;;;;;;57.33;22.60;;;;;;;8.45;71.20;96618.03;4893660;29;20198;-73
2023/12/13 09:33:52;;;;;;;53.73;21.67;;;;;;;8.19;71.49;96596.75;4893151;29;20623;-73
2023/12/13 09:36:20;;;;;;;55.43;24.27;;;;;;;8.47;71.98;96601.56;4909203;29;20223;-70
2023/12/13 09:38:47;;;;;;;44.33;20.93;;;;;;;8.42;71.68;96594.94;4904538;29;20337;-70
2023/12/13 09:41:27;;;;;;;51.97;22.43;;;;;;;8.23;71.90;96587.13;4900601;29;20231;-71
2023/12/13 09:43:55;;;;;;;46.63;20.57;;;;;;;8.28;72.36;96605.88;4892499;29;20206;-71
2023/12/13 09:46:22;;;;;;;56.77;23.20;;;;;;;8.34;72.43;96599.59;4893180;29;20194;-71
2023/12/13 09:48:51;;;;;;;55.00;22.63;;;;;;;8.02;74.38;96596.63;4893211;29;20247;-73
2023/12/13 09:51:21;;;;;;;58.57;24.17;;;;;;;8.08;73.12;96580.91;4892939;29;20282;-71
2023/12/13 09:53:52;;;;;;;61.40;27.20;;;;;;;7.99;72.86;96583.91;4893042;29;20253;-72
2023/12/13 09:56:21;;;;;;;64.00;26.50;;;;;;;7.90;72.88;96526.72;4892609;29;20200;-72
2023/12/13 09:58:48;;;;;;;59.93;24.97;;;;;;;8.34;72.85;96594.44;4893251;29;20263;-72
2023/12/13 10:01:16;;;;;;;43.43;19.47;;;;;;;8.42;72.49;96597.53;4892921;29;20326;-70
2023/12/13 10:03:43;;;;;;;39.30;19.00;;;;;;;8.58;71.99;96612.25;4908647;29;20226;-71
2023/12/13 10:06:10;;;;;;;48.73;22.63;;;;;;;8.44;72.12;96606.88;4911745;29;20679;-71
2023/12/13 10:08:37;;;;;;;49.17;21.27;;;;;;;8.17;73.13;96603.72;4911453;29;20290;-70
2023/12/13 10:11:06;;;;;;;43.67;19.73;;;;;;;8.13;73.75;96607.34;4912304;29;20203;-70
2023/12/13 10:13:34;;;;;;;53.07;20.37;;;;;;;8.28;73.03;96586.97;4910959;29;20285;-74
2023/12/13 10:16:13;;;;;;;47.20;21.60;;;;;;;8.54;73.24;96591.81;4911823;29;20269;-72
2023/12/13 10:18:43;;;;;;;55.70;21.77;;;;;;;8.70;72.42;96593.63;4903563;29;20217;-72
2023/12/13 10:21:11;;;;;;;46.97;20.90;;;;;;;8.76;72.33;96592.50;4921183;29;20190;-73
2023/12/13 10:23:41;;;;;;;43.73;18.67;;;;;;;8.69;71.49;96580.81;4918691;29;20203;-72
2023/12/13 10:26:09;;;;;;;41.43;19.50;;;;;;;8.75;71.89;96558.13;4911662;29;20756;-72
2023/12/13 10:28:36;;;;;;;52.13;18.80;;;;;;;8.39;72.14;96491.91;4911805;29;20202;-71
2023/12/13 10:31:04;;;;;;;44.93;18.70;;;;;;;8.76;73.36;96577.00;4910997;29;20687;-69
2023/12/13 10:33:31;;;;;;;48.63;18.77;;;;;;;8.79;72.09;96574.31;4911039;29;20246;-72
2023/12/13 10:36:01;;;;;;;42.47;20.60;;;;;;;8.88;71.81;96572.13;4910903;29;20242;-71
2023/12/13 10:38:30;;;;;;;42.10;19.40;;;;;;;8.93;71.59;96569.34;4910668;29;20281;-71
2023/12/13 10:40:59;;;;;;;41.33;20.83;;;;;;;9.09;71.22;96593.53;4911784;29;20203;-71
2023/12/13 10:43:27;;;;;;;46.70;22.20;;;;;;;9.14;70.93;96599.31;4910712;29;20195;-72
2023/12/13 10:46:01;;;;;;;54.67;22.83;;;;;;;9.22;71.01;96589.47;4910827;29;20202;-71
2023/12/13 10:48:35;;;;;;;47.33;20.67;;;;;;;9.23;70.73;96567.06;4910630;29;20198;-71
2023/12/13 10:51:03;;;;;;;50.80;20.67;;;;;;;9.35;70.32;96582.81;4910876;29;20679;-70
2023/12/13 10:53:32;;;;;;;43.23;21.23;;;;;;;9.09;70.13;96530.72;4910768;29;20580;-71
2023/12/13 10:56:00;;;;;;;51.97;20.87;;;;;;;9.02;71.42;96543.94;4893598;29;20234;-71
2023/12/13 10:58:29;;;;;;;46.13;20.83;;;;;;;9.05;71.39;96511.94;4894299;29;20270;-71
2023/12/13 11:01:38;;;;;;;43.47;19.50;;;;;;;9.26;71.16;96547.06;4911584;29;20214;-70
2023/12/13 11:04:59;;;;;;;55.03;20.17;;;;;;;9.24;71.40;96538.56;4911145;29;20199;-72
2023/12/13 11:08:23;;;;;;;49.27;20.70;;;;;;;9.27;70.98;96522.91;4891136;29;20286;-71
2023/12/13 11:11:10;;;;;;;54.23;20.07;;;;;;;9.27;71.31;96520.34;4891120;29;20663;-70
2023/12/13 11:13:46;;;;;;;65.53;23.93;;;;;;;9.39;70.76;96534.41;4890959;29;20207;-71
2023/12/13 11:16:25;;;;;;;55.40;22.67;;;;;;;9.48;70.64;96532.19;4890473;29;20202;-73
2023/12/13 11:18:57;;;;;;;58.23;22.00;;;;;;;9.33;70.80;96499.38;4891603;29;20294;-71
2023/12/13 11:21:26;;;;;;;48.63;21.50;;;;;;;9.48;70.71;96521.03;4891872;29;20203;-72
2023/12/13 11:23:54;;;;;;;53.10;21.77;;;;;;;9.57;70.43;96512.81;4905178;29;20208;-71
2023/12/13 11:26:24;;;;;;;55.43;20.80;;;;;;;9.47;70.50;96504.69;4891174;29;20290;-71
2023/12/13 11:28:54;;;;;;;46.10;20.17;;;;;;;9.59;70.69;96498.88;4892050;29;20255;-71
2023/12/13 11:31:22;;;;;;;39.90;19.50;;;;;;;9.40;70.88;96471.44;4891485;29;20596;-73
2023/12/13 11:33:54;;;;;;;43.43;17.90;;;;;;;9.46;70.67;96495.25;4893516;29;20195;-71